Time;durP1;ratioP1;P1;durP2;ratioP2;P2;SDS_P1;SDS_P2;PMS_P1;PMS_P2;Temp;Humidity;BMP_temperature;BMP_pressure;BME280_temperature;BME280_humidity;BME280_pressure;Samples;Min_cycle;Max_cycle;Signal;HPM_P1;HPM_P2
2022/09/23 00:00:45;;;;;;;3.70;2.53;;;;;;;8.81;77.93;101249.44;5056406;28;20222;-84
2022/09/23 00:03:12;;;;;;;5.33;2.30;;;;;;;8.78;77.83;101254.06;5056067;28;20233;-84
2022/09/23 00:05:38;;;;;;;3.07;1.90;;;;;;;8.73;77.98;101243.66;5056720;28;20209;-84
2022/09/23 00:08:05;;;;;;;2.67;1.83;;;;;;;8.70;77.48;101238.47;5056387;28;20206;-83
2022/09/23 00:10:32;;;;;;;3.13;2.00;;;;;;;8.65;77.85;101240.47;5054868;28;20706;-83
2022/09/23 00:12:59;;;;;;;1.60;1.50;;;;;;;8.62;78.60;101232.66;5054949;28;20334;-84
2022/09/23 00:15:28;;;;;;;2.37;1.80;;;;;;;8.59;78.01;101241.63;5054759;28;20236;-83
2022/09/23 00:17:56;;;;;;;3.57;1.80;;;;;;;8.58;78.27;101239.06;5054809;28;20232;-84
2022/09/23 00:20:24;;;;;;;3.23;1.70;;;;;;;8.53;78.61;101228.63;5054461;28;20216;-83
2022/09/23 00:22:50;;;;;;;2.83;2.00;;;;;;;8.51;78.65;101226.97;5055212;28;20232;-85
2022/09/23 00:25:17;;;;;;;2.90;1.70;;;;;;;8.49;79.06;101228.84;5054135;28;20211;-86
2022/09/23 00:27:43;;;;;;;2.07;1.87;;;;;;;8.46;78.78;101223.66;5054061;28;20583;-86
2022/09/23 00:30:10;;;;;;;3.30;1.83;;;;;;;8.47;78.55;101225.38;5054323;28;20212;-86
2022/09/23 00:32:38;;;;;;;2.40;1.80;;;;;;;8.44;78.89;101218.41;5054129;28;20212;-87
2022/09/23 00:35:07;;;;;;;2.43;1.90;;;;;;;8.43;78.50;101231.75;5054016;28;20225;-85
2022/09/23 00:37:34;;;;;;;2.20;1.80;;;;;;;8.41;79.11;101225.69;5054760;28;20228;-86
2022/09/23 00:40:01;;;;;;;2.37;2.00;;;;;;;8.39;79.15;101215.13;5054757;28;20209;-85
2022/09/23 00:42:27;;;;;;;2.20;1.93;;;;;;;8.38;79.67;101213.41;5055676;28;20205;-85
2022/09/23 00:44:56;;;;;;;2.23;1.83;;;;;;;8.37;79.34;101205.50;5074283;28;20209;-85
2022/09/23 00:47:28;;;;;;;2.40;1.67;;;;;;;8.33;79.59;101216.25;5073378;28;20212;-86
2022/09/23 00:50:02;;;;;;;3.27;2.10;;;;;;;8.31;79.21;101211.91;5073072;28;20200;-86
2022/09/23 00:52:32;;;;;;;2.83;2.00;;;;;;;8.24;79.33;101203.34;5073250;28;20554;-85
2022/09/23 00:55:00;;;;;;;2.80;2.00;;;;;;;8.21;79.05;101213.28;5073841;28;20229;-85
2022/09/23 00:57:29;;;;;;;2.60;2.00;;;;;;;8.17;78.99;101206.38;5073655;28;20209;-84
2022/09/23 00:59:56;;;;;;;3.70;2.13;;;;;;;8.15;79.06;101208.22;5073392;28;20224;-84
2022/09/23 01:02:23;;;;;;;1.80;1.70;;;;;;;8.12;79.70;101203.91;5072629;28;20299;-84
2022/09/23 01:04:51;;;;;;;2.47;1.90;;;;;;;8.12;79.67;101205.72;5072978;28;20209;-84
2022/09/23 01:07:18;;;;;;;4.13;2.20;;;;;;;8.12;79.63;101197.75;5072609;28;20205;-84
2022/09/23 01:09:48;;;;;;;2.83;2.00;;;;;;;8.11;79.36;101198.69;5072576;28;20205;-84
2022/09/23 01:12:28;;;;;;;3.50;2.27;;;;;;;8.10;80.27;101196.94;5072581;28;20190;-84
2022/09/23 01:15:06;;;;;;;3.00;1.63;;;;;;;8.08;79.72;101193.50;5073829;28;20209;-84
2022/09/23 01:17:40;;;;;;;3.77;2.30;;;;;;;8.07;80.31;101194.44;5073959;28;20200;-85
2022/09/23 01:20:46;;;;;;;2.33;2.00;;;;;;;8.04;79.87;101181.31;5074342;28;20196;-85
2022/09/23 01:23:30;;;;;;;2.97;1.90;;;;;;;8.04;80.38;101184.84;5055720;28;20240;-84
2022/09/23 01:26:14;;;;;;;2.93;2.00;;;;;;;8.03;80.76;101177.81;5074752;28;20185;-84
2022/09/23 01:29:01;;;;;;;2.60;1.87;;;;;;;8.00;80.73;101175.28;5074456;28;20583;-84
2022/09/23 01:31:37;;;;;;;2.10;1.90;;;;;;;7.97;80.34;101178.06;5073240;28;20196;-85
2022/09/23 01:34:09;;;;;;;1.70;1.60;;;;;;;7.96;80.25;101173.69;5072384;28;20220;-85
2022/09/23 01:36:42;;;;;;;1.83;1.70;;;;;;;7.94;80.42;101172.91;5077155;28;20204;-84
2022/09/23 01:39:12;;;;;;;2.97;1.80;;;;;;;7.92;80.47;101167.66;5064016;28;20204;-84
2022/09/23 01:41:50;;;;;;;2.30;2.10;;;;;;;7.93;80.18;101165.88;5083521;28;20651;-83
2022/09/23 01:44:21;;;;;;;2.53;2.00;;;;;;;7.92;80.42;101165.00;5077482;28;20326;-84
2022/09/23 01:46:53;;;;;;;4.33;2.03;;;;;;;7.92;80.64;101167.66;5077311;28;20563;-83
2022/09/23 01:49:25;;;;;;;3.83;2.03;;;;;;;7.89;80.13;101165.13;5074201;28;20212;-82
2022/09/23 01:51:57;;;;;;;2.07;1.83;;;;;;;7.87;79.65;101163.50;5085513;28;20206;-83
2022/09/23 01:54:30;;;;;;;2.23;2.03;;;;;;;7.85;80.50;101168.00;5078976;28;20231;-83
2022/09/23 01:57:03;;;;;;;2.40;2.10;;;;;;;7.85;80.66;101166.22;5066741;28;20220;-83
2022/09/23 01:59:35;;;;;;;2.43;2.17;;;;;;;7.85;80.16;101166.22;5079048;28;20208;-82
2022/09/23 02:02:06;;;;;;;2.00;1.80;;;;;;;7.86;80.28;101161.78;5073564;28;20196;-83
2022/09/23 02:04:38;;;;;;;2.50;2.30;;;;;;;7.86;80.61;101162.66;5086220;28;20683;-83
2022/09/23 02:07:13;;;;;;;3.53;1.80;;;;;;;7.87;80.88;101158.19;5077582;28;20208;-83
2022/09/23 02:09:44;;;;;;;1.90;1.80;;;;;;;7.87;80.81;101158.19;5071180;28;20237;-83
2022/09/23 02:12:16;;;;;;;3.33;2.30;;;;;;;7.87;80.38;101153.75;5070828;28;20690;-83
2022/09/23 02:14:48;;;;;;;2.70;2.10;;;;;;;7.88;81.05;101159.94;5070543;28;20274;-83
2022/09/23 02:17:22;;;;;;;1.80;1.60;;;;;;;7.88;80.61;101154.63;5078391;28;20205;-83
2022/09/23 02:19:56;;;;;;;2.17;1.70;;;;;;;7.89;80.69;101156.31;5082212;28;20200;-83
2022/09/23 02:22:26;;;;;;;2.13;1.80;;;;;;;7.88;80.14;101157.28;5082883;28;20223;-83
2022/09/23 02:24:55;;;;;;;4.40;1.90;;;;;;;7.85;80.62;101146.78;5074350;28;20654;-83
2022/09/23 02:27:26;;;;;;;2.40;2.03;;;;;;;7.83;80.83;101144.22;5071193;28;20213;-83
2022/09/23 02:29:57;;;;;;;2.47;1.63;;;;;;;7.82;80.49;101139.84;5080122;28;20224;-83
2022/09/23 02:32:34;;;;;;;2.57;1.60;;;;;;;7.80;80.54;101144.34;5080440;28;20206;-83
2022/09/23 02:35:14;;;;;;;1.83;1.67;;;;;;;7.80;81.13;101143.47;5068884;28;20693;-83
2022/09/23 02:37:46;;;;;;;1.60;1.50;;;;;;;7.78;81.18;101137.38;5077250;28;20206;-83
2022/09/23 02:40:22;;;;;;;2.43;1.60;;;;;;;7.77;80.90;101140.97;5074605;28;20853;-83
2022/09/23 02:43:00;;;;;;;1.93;1.70;;;;;;;7.75;80.84;101127.75;5077283;28;20705;-84
2022/09/23 02:45:26;;;;;;;2.87;1.60;;;;;;;7.74;81.03;101130.47;5076887;28;20185;-83
2022/09/23 02:48:01;;;;;;;3.97;1.87;;;;;;;7.72;80.24;101132.34;5082506;28;20208;-83
2022/09/23 02:50:29;;;;;;;2.30;1.77;;;;;;;7.68;80.66;101128.97;5075705;28;20204;-84
2022/09/23 02:52:56;;;;;;;1.87;1.77;;;;;;;7.66;80.97;101133.47;5079898;28;20217;-83
2022/09/23 02:55:24;;;;;;;2.40;1.80;;;;;;;7.64;80.39;101125.59;5081206;28;20233;-83
2022/09/23 02:57:52;;;;;;;1.70;1.53;;;;;;;7.63;80.35;101128.31;5078786;28;20203;-85
2022/09/23 03:00:19;;;;;;;1.60;1.50;;;;;;;7.62;80.32;101130.09;5085182;28;20220;-85
2022/09/23 03:03:14;;;;;;;2.10;1.70;;;;;;;7.61;81.15;101131.03;5076559;28;20225;-86
2022/09/23 03:05:50;;;;;;;2.70;1.80;;;;;;;7.60;80.87;101123.13;5050797;28;20208;-82
2022/09/23 03:08:29;;;;;;;1.60;1.50;;;;;;;7.58;80.88;101127.63;5080339;28;20204;-83
2022/09/23 03:11:03;;;;;;;3.70;2.00;;;;;;;7.56;80.82;101119.75;5077628;28;20193;-83
2022/09/23 03:13:38;;;;;;;2.33;1.83;;;;;;;7.56;81.21;101116.25;5074894;28;20294;-83
2022/09/23 03:16:12;;;;;;;3.23;1.53;;;;;;;7.55;81.16;101114.50;5073628;28;20219;-82
2022/09/23 03:18:46;;;;;;;1.70;1.60;;;;;;;7.54;80.69;101123.38;5075980;28;20212;-83
2022/09/23 03:21:19;;;;;;;2.80;1.67;;;;;;;7.52;81.19;101114.69;5075283;28;20221;-82
2022/09/23 03:23:48;;;;;;;1.60;1.50;;;;;;;7.50;81.22;101114.75;5087013;28;21013;-83
2022/09/23 03:26:20;;;;;;;1.57;1.47;;;;;;;7.49;81.58;101110.38;5072422;28;20209;-83
2022/09/23 03:28:49;;;;;;;3.47;1.90;;;;;;;7.49;80.83;101104.19;5083710;28;20223;-83
2022/09/23 03:31:17;;;;;;;4.07;2.57;;;;;;;7.47;81.04;101112.22;5073388;28;20663;-85
2022/09/23 03:33:48;;;;;;;6.43;2.30;;;;;;;7.47;80.86;101104.25;5074589;28;20231;-83
2022/09/23 03:39:06;;;;;;;3.97;2.80;;;;;;;7.43;81.43;101093.84;5068773;28;20204;-85
2022/09/23 03:41:38;;;;;;;4.83;2.80;;;;;;;7.40;80.81;101092.19;5074994;28;20211;-84
2022/09/23 03:44:07;;;;;;;5.27;3.33;;;;;;;7.39;81.28;101093.13;5079072;28;20217;-84
2022/09/23 03:46:34;;;;;;;6.27;2.27;;;;;;;7.38;81.02;101096.69;5067193;28;20244;-84
2022/09/23 03:49:10;;;;;;;1.73;1.60;;;;;;;7.36;80.87;101090.59;5070272;28;20296;-84
2022/09/23 03:51:36;;;;;;;1.73;1.63;;;;;;;7.35;81.49;101095.97;5068040;28;20208;-85
2022/09/23 03:54:03;;;;;;;2.67;1.80;;;;;;;7.34;81.56;101086.31;5084103;28;20224;-84
2022/09/23 03:56:29;;;;;;;1.73;1.63;;;;;;;7.34;82.18;101086.31;5073767;28;20225;-84
2022/09/23 03:58:56;;;;;;;2.03;1.80;;;;;;;7.34;81.83;101088.97;5074279;28;20201;-84
2022/09/23 04:01:22;;;;;;;1.83;1.67;;;;;;;7.32;81.36;101081.06;5064586;28;20212;-82
2022/09/23 04:03:49;;;;;;;3.47;2.00;;;;;;;7.31;81.31;101076.72;5069120;28;20225;-83
2022/09/23 04:06:16;;;;;;;3.03;2.00;;;;;;;7.30;81.40;101088.22;5063619;28;20206;-82
2022/09/23 04:08:43;;;;;;;3.80;2.07;;;;;;;7.31;82.33;101082.00;5067635;28;20205;-83
2022/09/23 04:11:10;;;;;;;1.73;1.63;;;;;;;7.31;82.33;101082.00;5068752;28;20207;-83
2022/09/23 04:13:36;;;;;;;1.57;1.40;;;;;;;7.29;81.54;101076.78;5073581;28;20228;-83
2022/09/23 04:16:03;;;;;;;1.60;1.50;;;;;;;7.30;81.73;101074.97;5067153;28;20241;-83
2022/09/23 04:18:30;;;;;;;3.50;1.80;;;;;;;7.30;81.77;101073.19;5067027;28;20212;-84
2022/09/23 04:20:58;;;;;;;2.23;1.53;;;;;;;7.30;82.21;101069.69;5065875;28;20292;-83
2022/09/23 04:23:26;;;;;;;2.07;1.40;;;;;;;7.30;81.81;101067.03;5068517;28;20707;-83
2022/09/23 04:25:53;;;;;;;2.77;1.57;;;;;;;7.29;82.34;101065.31;5063535;28;20196;-82
2022/09/23 04:28:19;;;;;;;2.27;1.60;;;;;;;7.29;81.72;101067.97;5066174;28;20244;-83
2022/09/23 04:30:47;;;;;;;3.13;1.80;;;;;;;7.29;82.16;101062.66;5073532;28;20292;-85
2022/09/23 04:33:16;;;;;;;2.73;1.70;;;;;;;7.29;81.89;101060.00;5076035;28;20255;-84
2022/09/23 04:35:42;;;;;;;2.70;1.80;;;;;;;7.30;82.06;101064.38;5073500;28;20221;-84
2022/09/23 04:38:10;;;;;;;2.50;1.63;;;;;;;7.28;82.30;101060.94;5068024;28;20216;-83
2022/09/23 04:40:38;;;;;;;3.77;1.60;;;;;;;7.28;81.96;101053.84;5066824;28;20200;-85
2022/09/23 04:43:04;;;;;;;1.77;1.40;;;;;;;7.29;81.99;101057.38;5069477;28;20231;-86
2022/09/23 04:45:31;;;;;;;2.87;1.50;;;;;;;7.29;82.07;101060.00;5084423;28;20670;-86
2022/09/23 04:47:58;;;;;;;2.23;1.80;;;;;;;7.29;82.16;101054.72;5072559;28;20214;-84
2022/09/23 04:50:25;;;;;;;2.83;1.80;;;;;;;7.28;82.39;101061.81;5071477;28;20217;-86
2022/09/23 04:52:52;;;;;;;4.23;2.50;;;;;;;7.28;82.21;101056.50;5070224;28;20220;-83
2022/09/23 04:55:18;;;;;;;2.53;2.30;;;;;;;7.29;82.57;101054.72;5071053;28;20556;-84
2022/09/23 04:57:46;;;;;;;3.67;2.37;;;;;;;7.29;82.02;101057.38;5074973;28;20220;-83
2022/09/23 05:00:15;;;;;;;2.47;2.00;;;;;;;7.30;82.70;101056.44;5074141;28;20229;-83
2022/09/23 05:02:45;;;;;;;3.67;1.87;;;;;;;7.29;82.25;101060.00;5074061;28;20217;-85
2022/09/23 05:05:12;;;;;;;5.00;2.20;;;;;;;7.30;82.19;101059.09;5073944;28;20201;-85
2022/09/23 05:07:39;;;;;;;2.10;1.83;;;;;;;7.29;81.97;101055.56;5064138;28;20754;-86
2022/09/23 05:10:07;;;;;;;3.73;2.20;;;;;;;7.29;82.55;101054.72;5061724;28;20651;-85
2022/09/23 05:12:33;;;;;;;2.23;1.87;;;;;;;7.29;82.81;101044.97;5083164;28;20201;-83
2022/09/23 05:15:01;;;;;;;2.73;1.90;;;;;;;7.28;82.25;101045.91;5073743;28;20201;-85
2022/09/23 05:17:30;;;;;;;7.67;2.20;;;;;;;7.30;82.99;101043.19;5075444;28;20201;-83
2022/09/23 05:19:57;;;;;;;3.97;2.10;;;;;;;7.32;82.23;101054.59;5078396;28;20232;-83
2022/09/23 05:22:23;;;;;;;3.03;2.30;;;;;;;7.31;82.65;101043.13;5094992;28;20200;-85
2022/09/23 05:24:50;;;;;;;6.63;2.00;;;;;;;7.32;82.28;101044.84;5094682;28;20243;-84
2022/09/23 05:27:16;;;;;;;3.87;2.37;;;;;;;7.32;82.30;101044.84;5094351;28;20203;-84
2022/09/23 05:29:43;;;;;;;3.70;2.57;;;;;;;7.35;83.09;101043.81;5095592;28;20572;-85
2022/09/23 05:32:11;;;;;;;4.73;2.53;;;;;;;7.36;82.79;101042.91;5094909;28;20200;-83
2022/09/23 05:34:37;;;;;;;2.73;2.40;;;;;;;7.40;83.13;101048.94;5091949;28;20227;-86
2022/09/23 05:37:04;;;;;;;2.87;1.87;;;;;;;7.46;83.45;101046.03;5090557;28;20227;-86
2022/09/23 05:39:30;;;;;;;1.97;1.70;;;;;;;7.53;83.65;101047.44;5091136;28;20200;-86
2022/09/23 05:41:58;;;;;;;2.47;1.80;;;;;;;7.60;83.62;101043.63;5090898;28;20212;-85
2022/09/23 05:44:25;;;;;;;4.07;1.90;;;;;;;7.68;83.71;101045.94;5090720;28;20228;-85
2022/09/23 05:46:51;;;;;;;5.90;2.57;;;;;;;7.76;84.13;101038.47;5090177;28;20211;-86
2022/09/23 05:49:19;;;;;;;2.60;1.77;;;;;;;7.87;84.67;101041.53;5090229;28;20197;-86
2022/09/23 05:51:46;;;;;;;4.10;2.00;;;;;;;7.95;83.61;101045.53;5090551;28;20243;-85
2022/09/23 05:54:12;;;;;;;2.33;2.03;;;;;;;8.03;84.08;101045.19;5090600;28;20235;-86
2022/09/23 05:56:39;;;;;;;2.20;2.00;;;;;;;8.11;84.28;101045.66;5090418;28;20231;-85
2022/09/23 05:59:05;;;;;;;4.33;1.73;;;;;;;8.19;83.07;101040.88;5090661;28;20212;-85
2022/09/23 06:01:34;;;;;;;1.60;1.47;;;;;;;8.29;83.39;101055.41;5090190;28;20208;-86
2022/09/23 06:04:02;;;;;;;1.57;1.40;;;;;;;8.38;83.15;101043.56;5091256;28;20782;-86
2022/09/23 06:06:32;;;;;;;3.40;1.60;;;;;;;8.48;82.55;101044.81;5090684;28;20651;-86
2022/09/23 06:08:59;;;;;;;1.50;1.40;;;;;;;8.59;81.91;101044.31;5091485;28;20207;-86
2022/09/23 06:11:26;;;;;;;2.20;1.30;;;;;;;8.68;81.78;101046.50;5094733;28;20204;-85
2022/09/23 06:13:54;;;;;;;3.17;1.70;;;;;;;8.79;81.56;101051.25;5094528;28;20722;-87
2022/09/23 06:16:21;;;;;;;2.57;1.40;;;;;;;8.88;81.58;101049.03;5094304;28;20235;-86
2022/09/23 06:18:47;;;;;;;1.67;1.30;;;;;;;8.96;81.05;101044.19;5094589;28;20670;-86
2022/09/23 06:21:16;;;;;;;1.67;1.30;;;;;;;9.05;80.26;101048.19;5094653;28;20204;-85
2022/09/23 06:23:45;;;;;;;1.77;1.30;;;;;;;9.15;79.98;101045.91;5094297;28;20229;-86
2022/09/23 06:26:13;;;;;;;3.33;1.40;;;;;;;9.25;79.74;101047.16;5094045;28;20207;-87
2022/09/23 06:28:41;;;;;;;2.20;1.30;;;;;;;9.32;78.89;101043.22;5094250;28;20204;-86
2022/09/23 06:31:11;;;;;;;2.70;1.20;;;;;;;9.42;78.48;101039.19;5093459;28;20204;-86
2022/09/23 06:33:37;;;;;;;2.00;1.50;;;;;;;9.51;78.18;101041.34;5093911;28;20661;-85
2022/09/23 06:36:06;;;;;;;2.07;1.77;;;;;;;9.60;77.87;101035.53;5093594;28;20590;-86
2022/09/23 06:38:33;;;;;;;2.00;1.40;;;;;;;9.68;77.46;101038.63;5093922;28;20682;-86
2022/09/23 06:41:01;;;;;;;1.87;1.40;;;;;;;9.77;77.21;101039.09;5094510;28;20258;-85
2022/09/23 06:43:29;;;;;;;3.77;1.80;;;;;;;9.87;76.39;101033.19;5094063;28;20224;-86
2022/09/23 06:45:57;;;;;;;3.00;1.53;;;;;;;9.96;75.84;101038.03;5093379;28;20209;-86
2022/09/23 06:48:24;;;;;;;2.70;1.60;;;;;;;10.05;75.60;101041.97;5094302;28;20573;-85
2022/09/23 06:50:52;;;;;;;2.77;1.60;;;;;;;10.12;75.18;101037.19;5094286;28;20212;-86
2022/09/23 06:53:19;;;;;;;1.87;1.67;;;;;;;10.18;74.79;101043.03;5094328;28;20632;-85
2022/09/23 06:55:46;;;;;;;1.83;1.40;;;;;;;10.26;74.06;101043.47;5094137;28;20213;-85
2022/09/23 06:58:14;;;;;;;3.13;1.40;;;;;;;10.33;73.42;101039.53;5093770;28;20216;-87
2022/09/23 07:00:41;;;;;;;2.13;1.50;;;;;;;10.39;72.94;101041.84;5093373;28;20217;-87
2022/09/23 07:03:08;;;;;;;3.07;2.13;;;;;;;10.48;72.74;101032.50;5093911;28;20702;-86
2022/09/23 07:05:35;;;;;;;3.13;1.83;;;;;;;10.54;72.32;101029.50;5094093;28;20270;-87
2022/09/23 07:08:02;;;;;;;1.60;1.30;;;;;;;10.59;71.69;101027.41;5093673;28;20213;-86
2022/09/23 07:10:29;;;;;;;4.03;1.40;;;;;;;10.65;71.46;101024.41;5093579;28;20232;-86
2022/09/23 07:12:56;;;;;;;2.80;1.50;;;;;;;10.70;71.20;101022.34;5094129;28;20467;-86
2022/09/23 07:15:24;;;;;;;3.67;1.47;;;;;;;10.75;70.78;101020.22;5093705;28;20215;-86
2022/09/23 07:17:50;;;;;;;4.03;1.30;;;;;;;10.83;70.35;101021.59;5093719;28;20221;-86
2022/09/23 07:20:17;;;;;;;2.03;1.00;;;;;;;10.89;70.16;101023.94;5092192;28;20219;-86
2022/09/23 07:22:49;;;;;;;2.37;1.30;;;;;;;10.95;69.97;101021.72;5092057;28;20289;-85
2022/09/23 07:25:15;;;;;;;2.10;1.30;;;;;;;11.02;69.78;101024.91;5093267;28;20836;-86
2022/09/23 07:27:42;;;;;;;4.77;2.23;;;;;;;11.09;69.50;101019.13;5093443;28;20461;-87
2022/09/23 07:30:10;;;;;;;3.30;1.60;;;;;;;11.17;69.25;101024.00;5092477;28;20239;-86
2022/09/23 07:32:37;;;;;;;1.37;1.17;;;;;;;11.24;69.14;101016.50;5092014;28;20224;-87
2022/09/23 07:35:05;;;;;;;2.43;1.10;;;;;;;11.30;69.00;101016.97;5093442;28;20547;-86
2022/09/23 07:37:31;;;;;;;2.70;1.37;;;;;;;11.37;68.67;101020.97;5092918;28;20237;-87
2022/09/23 07:39:58;;;;;;;1.80;1.20;;;;;;;11.46;68.47;101023.06;5093331;28;20207;-86
2022/09/23 07:42:24;;;;;;;1.53;1.10;;;;;;;11.55;68.12;101027.00;5092644;28;20214;-86
2022/09/23 07:44:51;;;;;;;2.53;1.10;;;;;;;11.65;68.02;101011.28;5093074;28;20203;-87
2022/09/23 07:47:17;;;;;;;1.30;1.10;;;;;;;11.77;67.81;101010.56;5092658;28;20463;-86
2022/09/23 07:49:45;;;;;;;2.20;1.60;;;;;;;11.88;67.36;101009.88;5087785;28;20210;-85
2022/09/23 07:52:12;;;;;;;1.10;1.00;;;;;;;12.00;67.18;101011.78;5072700;28;20331;-87
2022/09/23 07:54:38;;;;;;;1.80;1.00;;;;;;;12.12;66.90;101016.34;5073363;28;20683;-85
2022/09/23 07:57:05;;;;;;;1.23;1.00;;;;;;;12.28;66.85;101021.56;5093248;28;20226;-85
2022/09/23 07:59:31;;;;;;;2.33;1.30;;;;;;;12.43;66.26;101021.41;5084447;28;20201;-86
2022/09/23 08:01:58;;;;;;;2.10;1.20;;;;;;;12.56;65.70;101009.91;5073045;28;20185;-86
2022/09/23 08:04:27;;;;;;;1.27;1.17;;;;;;;12.66;64.82;101017.25;5072467;28;20262;-86
2022/09/23 08:06:57;;;;;;;1.10;0.90;;;;;;;12.78;64.66;101012.88;5072591;28;20627;-85
2022/09/23 08:09:26;;;;;;;2.90;1.20;;;;;;;12.90;64.56;101006.72;5072374;28;20204;-85
2022/09/23 08:11:53;;;;;;;2.93;1.40;;;;;;;13.06;63.98;101015.44;5072376;28;20685;-85
2022/09/23 08:14:21;;;;;;;3.93;1.17;;;;;;;13.21;64.10;101008.22;5071993;28;20232;-85
2022/09/23 08:16:48;;;;;;;2.10;1.13;;;;;;;13.39;63.70;101017.66;5071903;28;20228;-86
2022/09/23 08:19:15;;;;;;;3.67;1.17;;;;;;;13.54;62.97;101010.38;5071819;28;20204;-87
2022/09/23 08:21:42;;;;;;;1.20;1.10;;;;;;;13.68;62.03;101007.56;5072632;28;20208;-86
2022/09/23 08:24:14;;;;;;;2.17;1.20;;;;;;;13.82;62.04;101009.25;5071803;28;20225;-86
2022/09/23 08:26:40;;;;;;;1.37;1.10;;;;;;;13.94;61.30;101008.41;5072211;28;20193;-86
2022/09/23 08:29:08;;;;;;;1.10;1.00;;;;;;;14.06;60.77;101010.19;5071788;28;20219;-86
2022/09/23 08:31:35;;;;;;;3.20;1.20;;;;;;;14.16;60.55;100996.97;5089147;28;20211;-86
2022/09/23 08:34:01;;;;;;;1.17;1.03;;;;;;;14.27;60.08;101005.09;5092613;28;20231;-86
2022/09/23 08:36:28;;;;;;;1.77;1.17;;;;;;;14.36;59.66;101004.41;5084287;28;20688;-83
2022/09/23 08:38:56;;;;;;;2.03;1.20;;;;;;;14.45;59.31;101006.47;5071592;28;20208;-86
2022/09/23 08:41:31;;;;;;;2.50;1.00;;;;;;;14.55;58.96;101001.28;5072852;28;20222;-87
2022/09/23 08:44:02;;;;;;;1.03;0.93;;;;;;;14.61;58.46;101003.50;5072012;28;20240;-87
2022/09/23 08:46:33;;;;;;;1.50;1.00;;;;;;;14.71;58.21;101003.66;5072134;28;20181;-86
2022/09/23 08:49:01;;;;;;;2.83;1.10;;;;;;;14.81;57.48;100999.34;5072149;28;20195;-86
2022/09/23 08:51:34;;;;;;;1.13;0.90;;;;;;;14.94;57.12;101000.97;5072037;28;20205;-85
2022/09/23 08:54:00;;;;;;;2.13;1.20;;;;;;;15.06;56.56;101006.34;5071772;28;20316;-85
2022/09/23 08:56:29;;;;;;;2.47;1.30;;;;;;;15.21;55.72;101000.69;5084061;28;20204;-85
2022/09/23 08:59:06;;;;;;;1.30;1.00;;;;;;;15.35;55.53;100993.41;5091646;28;20205;-86
2022/09/23 09:01:39;;;;;;;1.37;0.90;;;;;;;15.46;54.83;100996.09;5067779;28;20212;-85
2022/09/23 09:04:16;;;;;;;1.27;1.17;;;;;;;15.54;54.30;100999.91;5090486;28;20236;-85
2022/09/23 09:06:48;;;;;;;1.87;1.10;;;;;;;15.68;54.35;100995.28;5070972;28;20182;-86
2022/09/23 09:09:22;;;;;;;1.97;1.30;;;;;;;15.79;53.74;101003.34;5071102;28;20209;-86
2022/09/23 09:11:55;;;;;;;2.17;1.10;;;;;;;15.90;53.37;101000.66;5079755;28;20262;-86
2022/09/23 09:14:26;;;;;;;2.27;1.10;;;;;;;15.98;52.89;100996.38;5070893;28;20249;-86
2022/09/23 09:17:01;;;;;;;3.43;1.40;;;;;;;16.09;53.34;100992.84;5070468;28;20216;-85
2022/09/23 09:19:54;;;;;;;3.07;1.10;;;;;;;16.22;52.45;100993.53;5070384;28;20247;-86
2022/09/23 09:22:27;;;;;;;1.40;1.30;;;;;;;16.32;51.99;100990.94;5054554;28;20771;-85
2022/09/23 09:25:01;;;;;;;1.63;0.93;;;;;;;16.44;51.91;100989.97;5070955;28;20211;-86
2022/09/23 09:27:28;;;;;;;2.60;1.10;;;;;;;16.54;51.12;100987.34;5078532;28;20199;-86
2022/09/23 09:29:57;;;;;;;5.03;1.43;;;;;;;16.64;51.40;100981.13;5071749;28;20211;-85
2022/09/23 09:32:39;;;;;;;1.93;1.10;;;;;;;16.77;51.10;100980.09;5071117;28;20291;-86
2022/09/23 09:35:18;;;;;;;1.30;1.20;;;;;;;16.88;50.87;100980.03;5070390;28;20295;-85
2022/09/23 09:37:47;;;;;;;1.33;0.90;;;;;;;16.99;50.36;100977.31;5070636;28;20217;-86
2022/09/23 09:40:16;;;;;;;2.50;0.93;;;;;;;17.11;50.44;100972.69;5072339;28;20217;-85
2022/09/23 09:42:47;;;;;;;0.97;0.80;;;;;;;17.20;49.69;100975.44;5070170;28;20197;-85
2022/09/23 09:45:23;;;;;;;1.10;0.83;;;;;;;17.33;48.81;100972.56;5071175;28;20223;-86
2022/09/23 09:47:59;;;;;;;1.10;1.00;;;;;;;17.40;48.85;100972.88;5078264;28;20258;-86
2022/09/23 09:50:47;;;;;;;2.10;0.87;;;;;;;17.46;48.18;100970.50;5064737;28;20198;-86
2022/09/23 09:53:17;;;;;;;3.57;1.00;;;;;;;17.52;47.75;100958.38;5054217;28;20231;-86
2022/09/23 09:55:44;;;;;;;4.00;1.13;;;;;;;17.59;47.62;100960.38;5084939;28;20615;-86
2022/09/23 09:58:15;;;;;;;1.53;0.93;;;;;;;17.64;47.45;100960.84;5073881;28;20266;-86
2022/09/23 10:00:43;;;;;;;1.87;1.00;;;;;;;17.70;47.07;100948.69;5076323;28;20221;-87
2022/09/23 10:03:26;;;;;;;0.80;0.80;;;;;;;17.73;46.88;100948.44;5082107;28;20217;-86
2022/09/23 10:05:56;;;;;;;2.43;1.10;;;;;;;17.78;46.50;100951.53;5073023;28;21066;-86
2022/09/23 10:08:26;;;;;;;2.03;1.13;;;;;;;17.84;46.12;100951.00;5078458;28;20686;-85
2022/09/23 10:11:00;;;;;;;1.33;1.20;;;;;;;17.91;45.96;100940.56;5071720;28;20218;-86
2022/09/23 10:13:29;;;;;;;1.40;1.00;;;;;;;18.00;45.81;100943.25;5075285;28;20717;-86
2022/09/23 10:15:57;;;;;;;0.97;0.90;;;;;;;18.07;45.62;100940.03;5073772;28;20202;-86
2022/09/23 10:18:29;;;;;;;0.90;0.80;;;;;;;18.16;45.44;100941.88;5068025;28;20230;-85
2022/09/23 10:21:01;;;;;;;1.10;1.00;;;;;;;18.20;44.76;100937.91;5069641;28;20284;-86
2022/09/23 10:23:32;;;;;;;1.97;0.90;;;;;;;18.29;44.85;100934.38;5078544;28;20222;-86
2022/09/23 10:26:00;;;;;;;2.60;1.13;;;;;;;18.39;45.34;100928.00;5083504;28;20279;-86
2022/09/23 10:28:38;;;;;;;3.40;1.30;;;;;;;18.47;44.82;100934.53;5085597;28;20219;-86
2022/09/23 10:31:07;;;;;;;1.57;1.00;;;;;;;18.53;44.89;100931.28;5068896;28;20194;-86
2022/09/23 10:33:35;;;;;;;2.07;1.20;;;;;;;18.60;44.10;100927.91;5077025;28;20306;-87
2022/09/23 10:36:01;;;;;;;1.10;1.00;;;;;;;18.63;43.69;100926.78;5063481;28;20216;-87
2022/09/23 10:38:28;;;;;;;1.10;1.00;;;;;;;18.62;43.96;100931.34;5080985;28;20232;-86
2022/09/23 10:46:40;;;;;;;1.33;1.23;;;;;;;18.75;43.91;100911.28;5074995;28;20584;-86
2022/09/23 10:49:42;;;;;;;1.30;1.20;;;;;;;18.80;44.23;100909.03;5075372;28;20264;-84
2022/09/23 10:52:23;;;;;;;2.17;1.10;;;;;;;18.90;43.37;100916.09;5035412;28;20239;-86
2022/09/23 10:55:03;;;;;;;2.93;1.03;;;;;;;18.92;43.25;100899.75;5064135;28;20190;-87
2022/09/23 10:57:45;;;;;;;1.83;1.20;;;;;;;18.93;43.32;100906.88;5072243;28;20886;-86
2022/09/23 11:00:21;;;;;;;1.93;1.10;;;;;;;18.94;43.01;100897.78;5077792;28;20699;-86
2022/09/23 11:03:16;;;;;;;0.87;0.83;;;;;;;18.98;43.22;100897.34;5077427;28;20742;-86
2022/09/23 11:05:50;;;;;;;1.17;1.03;;;;;;;18.99;42.98;100899.03;5075257;28;20688;-86
2022/09/23 11:08:37;;;;;;;1.40;1.20;;;;;;;19.03;43.30;100896.88;5073462;28;20483;-86
2022/09/23 11:11:17;;;;;;;2.40;1.07;;;;;;;19.07;42.94;100906.41;5069543;28;20200;-87
2022/09/23 11:14:15;;;;;;;2.13;1.30;;;;;;;19.14;43.19;100891.34;5072819;28;20288;-86
2022/09/23 11:16:56;;;;;;;1.27;1.03;;;;;;;19.21;43.15;100883.50;5062196;28;20212;-86
2022/09/23 11:19:37;;;;;;;1.30;1.20;;;;;;;19.26;43.16;100887.47;5067360;28;20204;-87
2022/09/23 11:22:22;;;;;;;1.20;1.00;;;;;;;19.28;43.29;100895.41;5074290;28;20289;-86
2022/09/23 11:25:07;;;;;;;5.40;1.30;;;;;;;19.32;42.70;100881.47;5077430;28;20617;-87
2022/09/23 11:27:53;;;;;;;2.97;1.07;;;;;;;19.33;42.65;100885.88;5072952;28;20215;-85
2022/09/23 11:30:20;;;;;;;4.30;1.40;;;;;;;19.34;42.63;100882.19;5071373;28;20206;-86
2022/09/23 11:33:14;;;;;;;1.10;1.00;;;;;;;19.38;42.48;100872.75;5070544;28;20238;-86
2022/09/23 11:35:48;;;;;;;2.90;1.37;;;;;;;19.41;42.27;100872.47;5075765;28;20666;-85
2022/09/23 11:38:24;;;;;;;4.10;1.77;;;;;;;19.41;42.80;100867.06;5080765;28;20235;-86
2022/09/23 11:40:54;;;;;;;1.90;1.33;;;;;;;19.47;42.49;100870.19;5079405;28;20206;-86
2022/09/23 11:43:23;;;;;;;2.77;1.30;;;;;;;19.46;42.13;100863.94;5080735;28;20597;-87
2022/09/23 11:45:57;;;;;;;1.57;1.40;;;;;;;19.47;42.50;100860.22;5070806;28;20211;-86
2022/09/23 11:48:32;;;;;;;1.63;1.20;;;;;;;19.52;42.65;100855.28;5063358;28;20256;-86
2022/09/23 11:51:03;;;;;;;1.20;1.10;;;;;;;19.58;41.97;100860.06;5075066;28;20201;-86
2022/09/23 11:53:38;;;;;;;2.33;1.00;;;;;;;19.58;42.17;100851.09;5069636;28;20775;-86